Naha2 — JD3425 — position and weather

sailwx.info

Track history (hours):
 
Tides and Currents Weather Stations Pressure Air Temp Water Temp Dewpoint Dewpoint Depression Visibility Wind Speed Wind Dir Waves Ship Positions

Naha2

Last reported at 2018-May-15 14:18 UTC. Time now 2018-Jun-24 14:22 UTC.
Position N 33°38' E 130°20'.
Warning: this ship's position is 40 days out of date.

Length 99 m; draft 5.3 m.

Type: Cargo ship. MMSI: 431004022.

Date/timePositionNaut miles runAvg speedWind from/ knotsBaromVisibWave heightAir tempDewpointWater temp
2018-May-15 14:18N 33°38' E 130°20'0 0.1
2018-May-15 14:00N 33°38' E 130°20'0 0.1
2018-May-15 13:30N 33°38' E 130°20'3 6.9
2018-May-15 13:00N 33°40' E 130°16'714.4
2018-May-15 12:31N 33°43' E 130°09'816.6
2018-May-15 12:00N 33°40' E 129°59'916.3
2018-May-15 11:29N 33°38' E 129°49'916.2
2018-May-15 10:55N 33°35' E 129°39'  
2018-May-12 11:51N 33°38' E 129°49'616.1
2018-May-12 11:30N 33°40' E 129°56'816.4
2018-May-12 11:00N 33°42' E 130°05'816.1
2018-May-12 10:30N 33°42' E 130°15'714.4
2018-May-12 10:01N 33°38' E 130°22'3 5.5
2018-May-12 09:31N 33°40' E 130°25'0 0.0
2018-May-12 09:00N 33°40' E 130°25'0 0.0
2018-May-12 08:27N 33°40' E 130°25'0 0.0
2018-May-12 07:58N 33°40' E 130°25'0 0.0
2018-May-12 07:28N 33°40' E 130°25'0 0.0
2018-May-12 06:58N 33°40' E 130°25'0 0.0
2018-May-12 06:28N 33°40' E 130°25'0 0.0
2018-May-12 06:01N 33°40' E 130°25'0 0.0
2018-May-12 05:31N 33°40' E 130°25'0 0.0
2018-May-12 05:00N 33°40' E 130°25'0 0.0
2018-May-12 04:31N 33°40' E 130°25'0 0.0
2018-May-12 04:01N 33°40' E 130°25'0 0.0
2018-May-12 03:31N 33°40' E 130°25'0 0.0
2018-May-12 03:00N 33°40' E 130°25'0 0.0
2018-May-12 02:30N 33°40' E 130°25'0 0.0
2018-May-12 01:58N 33°40' E 130°25'0 0.0
2018-May-12 01:30N 33°40' E 130°25'0 0.0
2018-May-12 01:00N 33°40' E 130°25'0 0.0
2018-May-12 00:28N 33°40' E 130°25'0 0.0
2018-May-12 00:01N 33°40' E 130°25'0 0.0
2018-May-11 23:30N 33°40' E 130°25'0 0.0
2018-May-11 23:00N 33°40' E 130°25'1 1.3
2018-May-11 22:31N 33°39' E 130°24'4 7.1
2018-May-11 21:58N 33°38' E 130°20'0 0.0
2018-May-11 21:28N 33°38' E 130°20'0 0.0
2018-May-11 20:58N 33°38' E 130°20'0 0.0
2018-May-11 20:28N 33°38' E 130°20'0 0.0
2018-May-11 19:58N 33°38' E 130°20'0 0.0
2018-May-11 19:28N 33°38' E 130°20'0 0.0
2018-May-11 18:58N 33°38' E 130°20'0 0.0
2018-May-11 18:28N 33°38' E 130°20'0 0.0
2018-May-11 17:58N 33°38' E 130°20'0 0.0
2018-May-11 17:28N 33°38' E 130°20'0 0.0
2018-May-11 16:58N 33°38' E 130°20'0 0.0
2018-May-11 16:28N 33°38' E 130°20'0 0.0
2018-May-11 15:58N 33°38' E 130°20'0 0.0
2018-May-11 15:28N 33°38' E 130°20'0 0.0
2018-May-11 14:58N 33°38' E 130°20'0 0.0
2018-May-11 14:28N 33°38' E 130°20'0 0.0
2018-May-11 13:58N 33°38' E 130°20'0 0.0
2018-May-11 13:28N 33°38' E 130°20'0 0.1
2018-May-11 13:01N 33°38' E 130°20'5 9.8
2018-May-11 12:30N 33°41' E 130°15'714.9
2018-May-11 12:00N 33°41' E 130°06'917.6
2018-May-11 11:30N 33°38' E 129°57'  
2018-May-08 13:12N 33°37' E 129°46'417.5
2018-May-08 12:58N 33°38' E 129°50'817.4
2018-May-08 12:30N 33°40' E 129°59'917.3
2018-May-08 12:00N 33°44' E 130°09'612.4
2018-May-08 11:30N 33°42' E 130°15'713.5
2018-May-08 11:00N 33°39' E 130°23'2 4.3
2018-May-08 10:30N 33°40' E 130°25'0 0.0
2018-May-08 10:00N 33°40' E 130°25'0 0.0
2018-May-08 09:30N 33°40' E 130°25'0 0.0
2018-May-08 09:00N 33°40' E 130°25'0 0.0
2018-May-08 08:30N 33°40' E 130°25'0 0.0
2018-May-08 07:57N 33°40' E 130°25'0 0.0
2018-May-08 07:30N 33°40' E 130°25'0 0.0
2018-May-08 07:00N 33°40' E 130°25'0 0.0
2018-May-08 06:30N 33°40' E 130°25'0 0.0
2018-May-08 06:00N 33°40' E 130°25'0 0.0
2018-May-08 05:27N 33°40' E 130°25'0 0.0
2018-May-08 05:00N 33°40' E 130°25'0 0.0
2018-May-08 04:30N 33°40' E 130°25'0 0.0
2018-May-08 04:00N 33°40' E 130°25'0 0.0
2018-May-08 03:30N 33°40' E 130°25'0 0.0
2018-May-08 03:00N 33°40' E 130°25'0 0.0
2018-May-08 02:30N 33°40' E 130°25'0 0.0
2018-May-08 02:00N 33°40' E 130°25'0 0.0
2018-May-08 01:30N 33°40' E 130°25'0 0.0
2018-May-08 01:00N 33°40' E 130°25'0 0.0
2018-May-08 00:30N 33°40' E 130°25'0 0.0
2018-May-08 00:00N 33°40' E 130°25'0 0.0
2018-May-07 23:30N 33°40' E 130°25'0 0.0
2018-May-07 23:00N 33°40' E 130°25'0 0.1
2018-May-07 22:30N 33°40' E 130°25'0 0.0
2018-May-07 22:00N 33°40' E 130°25'0 0.0
2018-May-07 21:30N 33°40' E 130°25'0 0.0
2018-May-07 21:00N 33°40' E 130°25'0 0.0
2018-May-07 20:30N 33°40' E 130°25'0 0.0
2018-May-07 20:00N 33°40' E 130°25'0 0.0
2018-May-07 19:30N 33°40' E 130°25'0 0.0
2018-May-07 19:00N 33°40' E 130°25'0 0.0
2018-May-07 18:30N 33°40' E 130°25'0 0.0
2018-May-07 18:00N 33°40' E 130°25'0 0.0
2018-May-07 17:30N 33°40' E 130°25'0 0.0
2018-May-07 17:00N 33°40' E 130°25'0 0.0
2018-May-07 16:30N 33°40' E 130°25'0 0.0
2018-May-07 16:00N 33°40' E 130°25'0 0.0
2018-May-07 15:30N 33°40' E 130°25'0 0.0
2018-May-07 15:00N 33°40' E 130°25'0 0.0
2018-May-07 14:30N 33°40' E 130°25'0 0.0
2018-May-07 13:59N 33°40' E 130°25'0 0.0
2018-May-07 13:30N 33°40' E 130°25'0 0.0
2018-May-07 13:00N 33°40' E 130°25'0 0.0
2018-May-07 12:30N 33°40' E 130°25'0 0.0
2018-May-07 12:00N 33°40' E 130°25'0 0.0
2018-May-07 11:30N 33°40' E 130°25'0 0.0
2018-May-07 10:59N 33°40' E 130°25'0 0.0
2018-May-07 10:30N 33°40' E 130°25'0 0.0
2018-May-07 10:00N 33°40' E 130°25'0 0.0
2018-May-07 09:30N 33°40' E 130°25'0 0.0
2018-May-07 09:00N 33°40' E 130°25'0 0.0
2018-May-07 08:30N 33°40' E 130°25'0 0.0
2018-May-07 07:59N 33°40' E 130°25'0 0.0
2018-May-07 07:30N 33°40' E 130°25'0 0.0
2018-May-07 07:00N 33°40' E 130°25'0 0.0
2018-May-07 06:30N 33°40' E 130°25'0 0.0
2018-May-07 06:00N 33°40' E 130°25'0 0.0
2018-May-07 05:30N 33°40' E 130°25'0 0.0
2018-May-07 04:59N 33°40' E 130°25'0 0.0
2018-May-07 04:30N 33°40' E 130°25'0 0.0
2018-May-07 03:59N 33°40' E 130°25'0 0.0
2018-May-07 03:30N 33°40' E 130°25'0 0.0
2018-May-07 03:00N 33°40' E 130°25'0 0.0
2018-May-07 02:30N 33°40' E 130°25'0 0.0
2018-May-07 01:59N 33°40' E 130°25'0 0.0
2018-May-07 01:29N 33°40' E 130°25'0 0.0
2018-May-07 00:59N 33°40' E 130°25'0 0.0
2018-May-07 00:30N 33°40' E 130°25'0 0.0
2018-May-07 00:00N 33°40' E 130°25'0 0.0
2018-May-06 23:30N 33°40' E 130°25'0 0.0
2018-May-06 23:00N 33°40' E 130°25'0 0.0
2018-May-06 22:30N 33°40' E 130°25'0 0.0
2018-May-06 21:57N 33°40' E 130°25'0 0.0
2018-May-06 21:30N 33°40' E 130°25'0 0.0
2018-May-06 20:59N 33°40' E 130°25'0 0.0
2018-May-06 20:30N 33°40' E 130°25'0 0.0
2018-May-06 19:59N 33°40' E 130°25'0 0.0
2018-May-06 19:29N 33°40' E 130°25'0 0.0
2018-May-06 19:00N 33°40' E 130°25'0 0.0
2018-May-06 18:29N 33°40' E 130°25'0 0.0
2018-May-06 18:00N 33°40' E 130°25'0 0.0
2018-May-06 17:29N 33°40' E 130°25'0 0.0
2018-May-06 16:57N 33°40' E 130°25'0 0.0
2018-May-06 16:29N 33°40' E 130°25'0 0.0
2018-May-06 15:59N 33°40' E 130°25'0 0.0
2018-May-06 15:29N 33°40' E 130°25'0 0.0
2018-May-06 14:59N 33°40' E 130°25'0 0.0
2018-May-06 14:29N 33°40' E 130°25'0 0.0
2018-May-06 13:59N 33°40' E 130°25'0 0.0
2018-May-06 13:29N 33°40' E 130°25'0 0.0
2018-May-06 12:59N 33°40' E 130°25'0 0.0
2018-May-06 12:29N 33°40' E 130°25'0 0.0
2018-May-06 11:59N 33°40' E 130°25'0 0.0
2018-May-06 11:29N 33°40' E 130°25'0 0.0
2018-May-06 10:59N 33°40' E 130°25'0 0.0
2018-May-06 10:29N 33°40' E 130°25'0 0.0
2018-May-06 09:59N 33°40' E 130°25'0 0.0
2018-May-06 09:29N 33°40' E 130°25'0 0.0
2018-May-06 09:00N 33°40' E 130°25'0 0.0
2018-May-06 08:30N 33°40' E 130°25'0 0.0
2018-May-06 07:59N 33°40' E 130°25'0 0.0
2018-May-06 07:29N 33°40' E 130°25'0 0.0
2018-May-06 06:59N 33°40' E 130°25'0 0.0
2018-May-06 06:29N 33°40' E 130°25'0 0.0
2018-May-06 05:59N 33°40' E 130°25'0 0.0
2018-May-06 05:29N 33°40' E 130°25'0 0.0
2018-May-06 04:59N 33°40' E 130°25'0 0.0
2018-May-06 04:29N 33°40' E 130°25'0 0.0
2018-May-06 03:59N 33°40' E 130°25'0 0.0
2018-May-06 03:29N 33°40' E 130°25'0 0.0
2018-May-06 02:59N 33°40' E 130°25'0 0.0
2018-May-06 02:29N 33°40' E 130°25'0 0.0
2018-May-06 01:59N 33°40' E 130°25'0 0.0
2018-May-06 01:29N 33°40' E 130°25'0 0.0
2018-May-06 00:59N 33°40' E 130°25'0 0.0
2018-May-06 00:29N 33°40' E 130°25'0 0.0
2018-May-05 23:59N 33°40' E 130°25'0 0.0
2018-May-05 23:29N 33°40' E 130°25'0 0.0
2018-May-05 22:59N 33°40' E 130°25'0 0.0
2018-May-05 22:29N 33°40' E 130°25'0 0.0
2018-May-05 21:59N 33°40' E 130°25'0 0.0
2018-May-05 21:29N 33°40' E 130°25'0 0.0
2018-May-05 20:59N 33°40' E 130°25'0 0.0
2018-May-05 20:29N 33°40' E 130°25'0 0.0
2018-May-05 19:59N 33°40' E 130°25'0 0.0
2018-May-05 19:29N 33°40' E 130°25'0 0.0
2018-May-05 18:59N 33°40' E 130°25'0 0.0
2018-May-05 18:29N 33°40' E 130°25'0 0.0
2018-May-05 17:59N 33°40' E 130°25'0 0.0
2018-May-05 17:29N 33°40' E 130°25'0 0.0
2018-May-05 16:59N 33°40' E 130°25'0 0.0
2018-May-05 16:29N 33°40' E 130°25'0 0.0
2018-May-05 15:59N 33°40' E 130°25'0 0.0
2018-May-05 15:29N 33°40' E 130°25'0 0.0
2018-May-05 14:59N 33°40' E 130°25'0 0.0
2018-May-05 14:29N 33°40' E 130°25'  
Track history (hours):
 
Tides and Currents Weather Stations Pressure Air Temp Water Temp Dewpoint Dewpoint Depression Visibility Wind Speed Wind Dir Waves Ship Positions

Naha2

Last reported at 2018-May-15 14:18 UTC. Time now 2018-Jun-24 14:22 UTC.
Position N 33°38' E 130°20'.
Warning: this ship's position is 40 days out of date.

Length 99 m; draft 5.3 m.

Type: Cargo ship. MMSI: 431004022.

Date/timePositionNaut miles runAvg speedWind from/ knotsBaromVisibWave heightAir tempDewpointWater temp
2018-May-15 14:18N 33°38' E 130°20'0 0.1
2018-May-15 14:00N 33°38' E 130°20'0 0.1
2018-May-15 13:30N 33°38' E 130°20'3 6.9
2018-May-15 13:00N 33°40' E 130°16'714.4
2018-May-15 12:31N 33°43' E 130°09'816.6
2018-May-15 12:00N 33°40' E 129°59'916.3
2018-May-15 11:29N 33°38' E 129°49'916.2
2018-May-15 10:55N 33°35' E 129°39'  
2018-May-12 11:51N 33°38' E 129°49'616.1
2018-May-12 11:30N 33°40' E 129°56'816.4
2018-May-12 11:00N 33°42' E 130°05'816.1
2018-May-12 10:30N 33°42' E 130°15'714.4
2018-May-12 10:01N 33°38' E 130°22'3 5.5
2018-May-12 09:31N 33°40' E 130°25'0 0.0
2018-May-12 09:00N 33°40' E 130°25'0 0.0
2018-May-12 08:27N 33°40' E 130°25'0 0.0
2018-May-12 07:58N 33°40' E 130°25'0 0.0
2018-May-12 07:28N 33°40' E 130°25'0 0.0
2018-May-12 06:58N 33°40' E 130°25'0 0.0
2018-May-12 06:28N 33°40' E 130°25'0 0.0
2018-May-12 06:01N 33°40' E 130°25'0 0.0
2018-May-12 05:31N 33°40' E 130°25'0 0.0
2018-May-12 05:00N 33°40' E 130°25'0 0.0
2018-May-12 04:31N 33°40' E 130°25'0 0.0
2018-May-12 04:01N 33°40' E 130°25'0 0.0
2018-May-12 03:31N 33°40' E 130°25'0 0.0
2018-May-12 03:00N 33°40' E 130°25'0 0.0
2018-May-12 02:30N 33°40' E 130°25'0 0.0
2018-May-12 01:58N 33°40' E 130°25'0 0.0
2018-May-12 01:30N 33°40' E 130°25'0 0.0
2018-May-12 01:00N 33°40' E 130°25'0 0.0
2018-May-12 00:28N 33°40' E 130°25'0 0.0
2018-May-12 00:01N 33°40' E 130°25'0 0.0
2018-May-11 23:30N 33°40' E 130°25'0 0.0
2018-May-11 23:00N 33°40' E 130°25'1 1.3
2018-May-11 22:31N 33°39' E 130°24'4 7.1
2018-May-11 21:58N 33°38' E 130°20'0 0.0
2018-May-11 21:28N 33°38' E 130°20'0 0.0
2018-May-11 20:58N 33°38' E 130°20'0 0.0
2018-May-11 20:28N 33°38' E 130°20'0 0.0
2018-May-11 19:58N 33°38' E 130°20'0 0.0
2018-May-11 19:28N 33°38' E 130°20'0 0.0
2018-May-11 18:58N 33°38' E 130°20'0 0.0
2018-May-11 18:28N 33°38' E 130°20'0 0.0
2018-May-11 17:58N 33°38' E 130°20'0 0.0
2018-May-11 17:28N 33°38' E 130°20'0 0.0
2018-May-11 16:58N 33°38' E 130°20'0 0.0
2018-May-11 16:28N 33°38' E 130°20'0 0.0
2018-May-11 15:58N 33°38' E 130°20'0 0.0
2018-May-11 15:28N 33°38' E 130°20'0 0.0
2018-May-11 14:58N 33°38' E 130°20'0 0.0
2018-May-11 14:28N 33°38' E 130°20'0 0.0
2018-May-11 13:58N 33°38' E 130°20'0 0.0
2018-May-11 13:28N 33°38' E 130°20'0 0.1
2018-May-11 13:01N 33°38' E 130°20'5 9.8
2018-May-11 12:30N 33°41' E 130°15'714.9
2018-May-11 12:00N 33°41' E 130°06'917.6
2018-May-11 11:30N 33°38' E 129°57'  
2018-May-08 13:12N 33°37' E 129°46'417.5
2018-May-08 12:58N 33°38' E 129°50'817.4
2018-May-08 12:30N 33°40' E 129°59'917.3
2018-May-08 12:00N 33°44' E 130°09'612.4
2018-May-08 11:30N 33°42' E 130°15'713.5
2018-May-08 11:00N 33°39' E 130°23'2 4.3
2018-May-08 10:30N 33°40' E 130°25'0 0.0
2018-May-08 10:00N 33°40' E 130°25'0 0.0
2018-May-08 09:30N 33°40' E 130°25'0 0.0
2018-May-08 09:00N 33°40' E 130°25'0 0.0
2018-May-08 08:30N 33°40' E 130°25'0 0.0
2018-May-08 07:57N 33°40' E 130°25'0 0.0
2018-May-08 07:30N 33°40' E 130°25'0 0.0
2018-May-08 07:00N 33°40' E 130°25'0 0.0
2018-May-08 06:30N 33°40' E 130°25'0 0.0
2018-May-08 06:00N 33°40' E 130°25'0 0.0
2018-May-08 05:27N 33°40' E 130°25'0 0.0
2018-May-08 05:00N 33°40' E 130°25'0 0.0
2018-May-08 04:30N 33°40' E 130°25'0 0.0
2018-May-08 04:00N 33°40' E 130°25'0 0.0
2018-May-08 03:30N 33°40' E 130°25'0 0.0
2018-May-08 03:00N 33°40' E 130°25'0 0.0
2018-May-08 02:30N 33°40' E 130°25'0 0.0
2018-May-08 02:00N 33°40' E 130°25'0 0.0
2018-May-08 01:30N 33°40' E 130°25'0 0.0
2018-May-08 01:00N 33°40' E 130°25'0 0.0
2018-May-08 00:30N 33°40' E 130°25'0 0.0
2018-May-08 00:00N 33°40' E 130°25'0 0.0
2018-May-07 23:30N 33°40' E 130°25'0 0.0
2018-May-07 23:00N 33°40' E 130°25'0 0.1
2018-May-07 22:30N 33°40' E 130°25'0 0.0
2018-May-07 22:00N 33°40' E 130°25'0 0.0
2018-May-07 21:30N 33°40' E 130°25'0 0.0
2018-May-07 21:00N 33°40' E 130°25'0 0.0
2018-May-07 20:30N 33°40' E 130°25'0 0.0
2018-May-07 20:00N 33°40' E 130°25'0 0.0
2018-May-07 19:30N 33°40' E 130°25'0 0.0
2018-May-07 19:00N 33°40' E 130°25'0 0.0
2018-May-07 18:30N 33°40' E 130°25'0 0.0
2018-May-07 18:00N 33°40' E 130°25'0 0.0
2018-May-07 17:30N 33°40' E 130°25'0 0.0
2018-May-07 17:00N 33°40' E 130°25'0 0.0
2018-May-07 16:30N 33°40' E 130°25'0 0.0
2018-May-07 16:00N 33°40' E 130°25'0 0.0
2018-May-07 15:30N 33°40' E 130°25'0 0.0
2018-May-07 15:00N 33°40' E 130°25'0 0.0
2018-May-07 14:30N 33°40' E 130°25'0 0.0
2018-May-07 13:59N 33°40' E 130°25'0 0.0
2018-May-07 13:30N 33°40' E 130°25'0 0.0
2018-May-07 13:00N 33°40' E 130°25'0 0.0
2018-May-07 12:30N 33°40' E 130°25'0 0.0
2018-May-07 12:00N 33°40' E 130°25'0 0.0
2018-May-07 11:30N 33°40' E 130°25'0 0.0
2018-May-07 10:59N 33°40' E 130°25'0 0.0
2018-May-07 10:30N 33°40' E 130°25'0 0.0
2018-May-07 10:00N 33°40' E 130°25'0 0.0
2018-May-07 09:30N 33°40' E 130°25'0 0.0
2018-May-07 09:00N 33°40' E 130°25'0 0.0
2018-May-07 08:30N 33°40' E 130°25'0 0.0
2018-May-07 07:59N 33°40' E 130°25'0 0.0
2018-May-07 07:30N 33°40' E 130°25'0 0.0
2018-May-07 07:00N 33°40' E 130°25'0 0.0
2018-May-07 06:30N 33°40' E 130°25'0 0.0
2018-May-07 06:00N 33°40' E 130°25'0 0.0
2018-May-07 05:30N 33°40' E 130°25'0 0.0
2018-May-07 04:59N 33°40' E 130°25'0 0.0
2018-May-07 04:30N 33°40' E 130°25'0 0.0
2018-May-07 03:59N 33°40' E 130°25'0 0.0
2018-May-07 03:30N 33°40' E 130°25'0 0.0
2018-May-07 03:00N 33°40' E 130°25'0 0.0
2018-May-07 02:30N 33°40' E 130°25'0 0.0
2018-May-07 01:59N 33°40' E 130°25'0 0.0
2018-May-07 01:29N 33°40' E 130°25'0 0.0
2018-May-07 00:59N 33°40' E 130°25'0 0.0
2018-May-07 00:30N 33°40' E 130°25'0 0.0
2018-May-07 00:00N 33°40' E 130°25'0 0.0
2018-May-06 23:30N 33°40' E 130°25'0 0.0
2018-May-06 23:00N 33°40' E 130°25'0 0.0
2018-May-06 22:30N 33°40' E 130°25'0 0.0
2018-May-06 21:57N 33°40' E 130°25'0 0.0
2018-May-06 21:30N 33°40' E 130°25'0 0.0
2018-May-06 20:59N 33°40' E 130°25'0 0.0
2018-May-06 20:30N 33°40' E 130°25'0 0.0
2018-May-06 19:59N 33°40' E 130°25'0 0.0
2018-May-06 19:29N 33°40' E 130°25'0 0.0
2018-May-06 19:00N 33°40' E 130°25'0 0.0
2018-May-06 18:29N 33°40' E 130°25'0 0.0
2018-May-06 18:00N 33°40' E 130°25'0 0.0
2018-May-06 17:29N 33°40' E 130°25'0 0.0
2018-May-06 16:57N 33°40' E 130°25'0 0.0
2018-May-06 16:29N 33°40' E 130°25'0 0.0
2018-May-06 15:59N 33°40' E 130°25'0 0.0
2018-May-06 15:29N 33°40' E 130°25'0 0.0
2018-May-06 14:59N 33°40' E 130°25'0 0.0
2018-May-06 14:29N 33°40' E 130°25'0 0.0
2018-May-06 13:59N 33°40' E 130°25'0 0.0
2018-May-06 13:29N 33°40' E 130°25'0 0.0
2018-May-06 12:59N 33°40' E 130°25'0 0.0
2018-May-06 12:29N 33°40' E 130°25'0 0.0
2018-May-06 11:59N 33°40' E 130°25'0 0.0
2018-May-06 11:29N 33°40' E 130°25'0 0.0
2018-May-06 10:59N 33°40' E 130°25'0 0.0
2018-May-06 10:29N 33°40' E 130°25'0 0.0
2018-May-06 09:59N 33°40' E 130°25'0 0.0
2018-May-06 09:29N 33°40' E 130°25'0 0.0
2018-May-06 09:00N 33°40' E 130°25'0 0.0
2018-May-06 08:30N 33°40' E 130°25'0 0.0
2018-May-06 07:59N 33°40' E 130°25'0 0.0
2018-May-06 07:29N 33°40' E 130°25'0 0.0
2018-May-06 06:59N 33°40' E 130°25'0 0.0
2018-May-06 06:29N 33°40' E 130°25'0 0.0
2018-May-06 05:59N 33°40' E 130°25'0 0.0
2018-May-06 05:29N 33°40' E 130°25'0 0.0
2018-May-06 04:59N 33°40' E 130°25'0 0.0
2018-May-06 04:29N 33°40' E 130°25'0 0.0
2018-May-06 03:59N 33°40' E 130°25'0 0.0
2018-May-06 03:29N 33°40' E 130°25'0 0.0
2018-May-06 02:59N 33°40' E 130°25'0 0.0
2018-May-06 02:29N 33°40' E 130°25'0 0.0
2018-May-06 01:59N 33°40' E 130°25'0 0.0
2018-May-06 01:29N 33°40' E 130°25'0 0.0
2018-May-06 00:59N 33°40' E 130°25'0 0.0
2018-May-06 00:29N 33°40' E 130°25'0 0.0
2018-May-05 23:59N 33°40' E 130°25'0 0.0
2018-May-05 23:29N 33°40' E 130°25'0 0.0
2018-May-05 22:59N 33°40' E 130°25'0 0.0
2018-May-05 22:29N 33°40' E 130°25'0 0.0
2018-May-05 21:59N 33°40' E 130°25'0 0.0
2018-May-05 21:29N 33°40' E 130°25'0 0.0
2018-May-05 20:59N 33°40' E 130°25'0 0.0
2018-May-05 20:29N 33°40' E 130°25'0 0.0
2018-May-05 19:59N 33°40' E 130°25'0 0.0
2018-May-05 19:29N 33°40' E 130°25'0 0.0
2018-May-05 18:59N 33°40' E 130°25'0 0.0
2018-May-05 18:29N 33°40' E 130°25'0 0.0
2018-May-05 17:59N 33°40' E 130°25'0 0.0
2018-May-05 17:29N 33°40' E 130°25'0 0.0
2018-May-05 16:59N 33°40' E 130°25'0 0.0
2018-May-05 16:29N 33°40' E 130°25'0 0.0
2018-May-05 15:59N 33°40' E 130°25'0 0.0
2018-May-05 15:29N 33°40' E 130°25'0 0.0
2018-May-05 14:59N 33°40' E 130°25'0 0.0
2018-May-05 14:29N 33°40' E 130°25'  

Dump ship's entire track history